Mills, Pennsylvania
Current Conditions -  °F | °C
As of 2:56 PM on Monday 24 Nov 2014 (Local Time) from KELZ Reporting Station
Broken Clouds Broken Clouds  
Wind Chill: 62°   Ceiling: 9000
Heat Index: 62°   Visibility: 10mi
Dew Point: 43°   Wind: 16mph
Humidity: 50%   Direction: 220°SW
Pressure: 29.39"   Gusts: 28mph
Location:  41.95°N, 77.69°W
Report Text: KELZ 241956Z AUTO 22014G24KT 180V260 10SM FEW055 SCT070 BKN090 17/06 A2939 RMK AO2 PK WND 20027/1935 RAB36E45 SLP951 P0000 T01670061
Loading
Personal Weather Stations






























Interactive Weather Map New forecast layout! Learn more

10-Day Weather Forecast

Advertisements
Track Severe Weather on mobile